createdAt,value
2018-12-19T00:01:35.144Z,0.00
2018-12-19T00:04:02.601Z,0.00
2018-12-19T00:06:30.064Z,0.00
2018-12-19T00:09:03.028Z,-0.10
2018-12-19T00:11:27.020Z,-0.20
2018-12-19T00:13:54.480Z,-0.20
2018-12-19T00:16:21.964Z,-0.20
2018-12-19T00:18:49.416Z,-0.10
2018-12-19T00:21:16.887Z,0.00
2018-12-19T00:23:44.332Z,0.10
2018-12-19T00:26:11.802Z,0.10
2018-12-19T00:28:39.245Z,0.10
2018-12-19T00:31:06.781Z,-0.10
2018-12-19T00:33:34.242Z,-0.10
2018-12-19T00:36:01.708Z,-0.20
2018-12-19T00:38:29.164Z,-0.20
2018-12-19T00:40:56.632Z,-0.30
2018-12-19T00:43:24.687Z,-0.30
2018-12-19T00:45:52.175Z,-0.30
2018-12-19T00:48:19.616Z,-0.30
2018-12-19T00:50:47.069Z,-0.40
2018-12-19T00:53:14.535Z,-0.40
2018-12-19T00:55:41.992Z,-0.30
2018-12-19T00:58:09.465Z,-0.30
2018-12-19T01:00:36.922Z,-0.30
2018-12-19T01:03:04.380Z,-0.30
2018-12-19T01:05:31.837Z,-0.20
2018-12-19T01:07:59.309Z,-0.20
2018-12-19T01:10:26.765Z,-0.20
2018-12-19T01:12:54.622Z,-0.20
2018-12-19T01:15:22.070Z,-0.10
2018-12-19T01:17:49.541Z,0.00
2018-12-19T01:20:16.997Z,0.00
2018-12-19T01:22:44.468Z,0.10
2018-12-19T01:25:11.929Z,-0.10
2018-12-19T01:27:39.402Z,-0.10
2018-12-19T01:30:06.937Z,-0.10
2018-12-19T01:32:34.405Z,-0.10
2018-12-19T01:35:01.861Z,-0.10
2018-12-19T01:37:29.339Z,-0.10
2018-12-19T01:39:56.788Z,-0.10
2018-12-19T01:42:24.264Z,-0.10
2018-12-19T01:44:51.727Z,-0.20
2018-12-19T01:47:19.192Z,-0.10
2018-12-19T01:49:46.644Z,-0.10
2018-12-19T01:52:14.116Z,-0.10
2018-12-19T01:54:42.174Z,-0.20
2018-12-19T01:57:09.637Z,-0.20
2018-12-19T01:59:37.099Z,-0.20
2018-12-19T02:02:04.578Z,-0.10
2018-12-19T02:04:32.035Z,-0.10
2018-12-19T02:06:59.492Z,0.00
2018-12-19T02:09:28.980Z,0.00
2018-12-19T02:11:56.480Z,-0.10
2018-12-19T02:14:23.937Z,0.00
2018-12-19T02:16:51.409Z,0.00
2018-12-19T02:19:18.868Z,-0.10
2018-12-19T02:21:46.383Z,-0.20
2018-12-19T02:24:13.843Z,-0.10
2018-12-19T02:26:41.284Z,-0.20
2018-12-19T02:29:08.752Z,-0.20
2018-12-19T02:31:36.210Z,-0.10
2018-12-19T02:34:04.004Z,-0.10
2018-12-19T02:36:31.528Z,0.00
2018-12-19T02:38:58.992Z,0.00
2018-12-19T02:41:26.437Z,0.00
2018-12-19T02:43:53.905Z,-0.10
2018-12-19T02:46:21.353Z,-0.10
2018-12-19T02:48:48.835Z,-0.10
2018-12-19T02:51:16.292Z,0.00
2018-12-19T02:53:43.760Z,-0.10
2018-12-19T02:56:11.224Z,-0.10
2018-12-19T02:58:38.695Z,-0.10
2018-12-19T03:01:06.168Z,0.00
2018-12-19T03:03:33.632Z,0.00
2018-12-19T03:06:01.084Z,0.10
2018-12-19T03:08:28.552Z,0.10
2018-12-19T03:10:56.372Z,0.10
2018-12-19T03:13:23.841Z,0.10
2018-12-19T03:15:51.309Z,0.10
2018-12-19T03:18:18.864Z,0.10
2018-12-19T03:20:46.320Z,0.20
2018-12-19T03:23:13.796Z,0.20
2018-12-19T03:25:41.252Z,0.30
2018-12-19T03:28:08.717Z,0.30
2018-12-19T03:30:36.165Z,0.40
2018-12-19T03:33:03.629Z,0.40
2018-12-19T03:35:31.148Z,0.40
2018-12-19T03:37:58.621Z,0.30
2018-12-19T03:40:26.154Z,0.40
2018-12-19T03:42:53.621Z,0.50
2018-12-19T03:45:21.140Z,0.50
2018-12-19T03:47:48.658Z,0.60
2018-12-19T03:50:16.108Z,0.60
2018-12-19T03:52:43.584Z,0.70
2018-12-19T03:55:11.046Z,0.70
2018-12-19T03:57:38.567Z,0.70
2018-12-19T04:00:06.745Z,0.70
2018-12-19T04:02:34.202Z,0.70
2018-12-19T04:05:01.658Z,0.70
2018-12-19T04:07:29.134Z,0.80
2018-12-19T04:09:58.099Z,0.80
2018-12-19T04:12:25.885Z,0.90
2018-12-19T04:14:53.361Z,0.90
2018-12-19T04:17:20.820Z,1.00
2018-12-19T04:19:48.383Z,0.90
2018-12-19T04:22:15.835Z,1.00
2018-12-19T04:24:43.308Z,1.00
2018-12-19T04:27:10.769Z,1.00
2018-12-19T04:29:38.700Z,1.00
2018-12-19T04:32:06.454Z,1.00
2018-12-19T04:34:33.923Z,1.00
2018-12-19T04:37:01.384Z,1.10
2018-12-19T04:39:28.857Z,1.00
2018-12-19T04:41:56.381Z,1.00
2018-12-19T04:44:23.854Z,1.00
2018-12-19T04:46:51.308Z,1.00
2018-12-19T04:49:18.827Z,1.00
2018-12-19T04:51:46.264Z,1.00
2018-12-19T04:54:13.736Z,1.00
2018-12-19T04:56:41.285Z,1.00
2018-12-19T04:59:08.759Z,1.00
2018-12-19T05:01:36.209Z,1.00
2018-12-19T05:04:03.737Z,1.00
2018-12-19T05:06:31.193Z,1.00
2018-12-19T05:08:58.676Z,1.00
2018-12-19T05:11:26.191Z,1.00
2018-12-19T05:13:53.665Z,1.10
2018-12-19T05:16:21.125Z,1.10
2018-12-19T05:18:48.599Z,1.00
2018-12-19T05:21:16.048Z,1.10
2018-12-19T05:23:44.396Z,1.10
2018-12-19T05:26:11.861Z,1.10
2018-12-19T05:28:39.309Z,1.20
2018-12-19T05:31:06.792Z,1.20
2018-12-19T05:33:34.369Z,1.20
2018-12-19T05:36:01.841Z,1.10
2018-12-19T05:38:29.289Z,1.20
2018-12-19T05:40:56.769Z,1.20
2018-12-19T05:43:24.276Z,1.20
2018-12-19T05:45:51.752Z,1.30
2018-12-19T05:48:19.215Z,1.30
2018-12-19T05:50:46.737Z,1.30
2018-12-19T05:53:14.229Z,1.30
2018-12-19T05:55:41.703Z,1.30
2018-12-19T05:58:09.161Z,1.30
2018-12-19T06:00:36.617Z,1.30
2018-12-19T06:03:04.074Z,1.30
2018-12-19T06:05:31.672Z,1.30
2018-12-19T06:07:59.132Z,1.30
2018-12-19T06:10:26.618Z,1.30
2018-12-19T06:12:54.077Z,1.40
2018-12-19T06:15:21.541Z,1.40
2018-12-19T06:17:48.996Z,1.40
2018-12-19T06:20:16.456Z,1.30
2018-12-19T06:22:43.912Z,1.30
2018-12-19T06:25:11.380Z,1.20
2018-12-19T06:27:38.836Z,1.20
2018-12-19T06:30:06.389Z,1.10
2018-12-19T06:32:33.841Z,1.20
2018-12-19T06:35:01.306Z,1.10
2018-12-19T06:37:28.760Z,1.10
2018-12-19T06:39:56.231Z,1.10
2018-12-19T06:42:23.676Z,1.10
2018-12-19T06:44:51.141Z,1.10
2018-12-19T06:47:18.592Z,1.10
2018-12-19T06:49:46.055Z,1.00
2018-12-19T06:52:13.512Z,1.00
2018-12-19T06:54:40.986Z,1.00
2018-12-19T06:57:09.645Z,0.90
2018-12-19T06:59:37.435Z,1.00
2018-12-19T07:02:04.968Z,0.90
2018-12-19T07:04:32.425Z,1.00
2018-12-19T07:06:59.903Z,1.00
2018-12-19T07:09:27.349Z,1.00
2018-12-19T07:11:54.823Z,1.00
2018-12-19T07:14:22.313Z,1.00
2018-12-19T07:16:49.848Z,0.90
2018-12-19T07:19:17.310Z,0.90
2018-12-19T07:21:44.780Z,1.00
2018-12-19T07:24:12.311Z,1.10
2018-12-19T07:26:39.797Z,1.00
2018-12-19T07:29:07.253Z,1.00
2018-12-19T07:31:34.724Z,1.10
2018-12-19T07:34:02.176Z,1.10
2018-12-19T07:36:29.657Z,1.10
2018-12-19T07:38:57.117Z,1.10
2018-12-19T07:41:24.574Z,1.10
2018-12-19T07:43:52.028Z,1.10
2018-12-19T07:46:19.948Z,1.10
2018-12-19T07:48:47.644Z,1.10
2018-12-19T07:51:15.840Z,1.20
2018-12-19T07:53:43.361Z,1.20
2018-12-19T07:56:11.003Z,1.20
2018-12-19T07:58:38.894Z,1.20
2018-12-19T08:01:06.382Z,1.30
2018-12-19T08:03:33.897Z,1.40
2018-12-19T08:06:01.380Z,1.40
2018-12-19T08:08:28.837Z,1.40
2018-12-19T08:10:56.313Z,1.50
2018-12-19T08:13:23.764Z,1.50
2018-12-19T08:15:51.240Z,1.40
2018-12-19T08:18:18.697Z,1.50
2018-12-19T08:20:46.164Z,1.50
2018-12-19T08:23:13.612Z,1.60
2018-12-19T08:25:41.077Z,1.60
2018-12-19T08:28:08.551Z,1.60
2018-12-19T08:30:36.005Z,1.70
2018-12-19T08:33:03.532Z,1.70
2018-12-19T08:35:30.988Z,1.80
2018-12-19T08:37:58.457Z,1.80
2018-12-19T08:40:26.031Z,1.80
2018-12-19T08:42:53.612Z,1.90
2018-12-19T08:45:21.441Z,1.90
2018-12-19T08:47:48.904Z,1.90
2018-12-19T08:50:16.356Z,1.90
2018-12-19T08:52:43.925Z,1.90
2018-12-19T08:55:11.465Z,2.00
2018-12-19T08:57:38.934Z,2.00
2018-12-19T09:00:08.989Z,2.10
2018-12-19T09:02:36.535Z,2.10
2018-12-19T09:05:04.735Z,2.10
2018-12-19T09:07:32.206Z,2.10
2018-12-19T09:09:59.669Z,2.10
2018-12-19T09:12:27.141Z,2.20
2018-12-19T09:14:56.584Z,2.30
2018-12-19T09:17:24.762Z,2.30
2018-12-19T09:19:52.573Z,2.40
2018-12-19T09:22:20.323Z,2.40
2018-12-19T09:24:47.783Z,2.40
2018-12-19T09:27:15.261Z,2.40
2018-12-19T09:29:42.716Z,2.40
2018-12-19T09:32:10.179Z,2.40
2018-12-19T09:34:37.641Z,2.40
2018-12-19T09:37:05.104Z,2.40
2018-12-19T09:39:32.552Z,2.50
2018-12-19T09:42:00.024Z,2.70
2018-12-19T09:44:27.477Z,2.80
2018-12-19T09:46:54.940Z,2.80
2018-12-19T09:49:22.500Z,2.70
2018-12-19T09:51:50.921Z,2.70
2018-12-19T09:54:18.384Z,2.60
2018-12-19T09:56:45.854Z,2.60
2018-12-19T09:59:13.312Z,2.60
2018-12-19T10:01:40.773Z,2.60
2018-12-19T10:04:08.244Z,2.60
2018-12-19T10:06:35.704Z,2.60
2018-12-19T10:09:05.513Z,2.60
2018-12-19T10:11:32.972Z,2.60
2018-12-19T10:14:00.649Z,2.60
2018-12-19T10:16:28.102Z,2.50
2018-12-19T10:18:55.568Z,2.50
2018-12-19T10:21:23.024Z,2.50
2018-12-19T10:23:50.490Z,2.60
2018-12-19T10:26:17.962Z,2.60
2018-12-19T10:28:45.436Z,2.60
2018-12-19T10:31:13.820Z,2.70
2018-12-19T10:33:41.301Z,2.70
2018-12-19T10:36:08.826Z,2.70
2018-12-19T10:38:36.297Z,2.70
2018-12-19T10:41:03.758Z,2.70
2018-12-19T10:43:31.224Z,2.80
2018-12-19T10:45:58.680Z,2.80
2018-12-19T10:48:26.161Z,2.80
2018-12-19T10:50:53.617Z,2.90
2018-12-19T10:53:21.961Z,2.80
2018-12-19T10:55:49.416Z,2.80
2018-12-19T10:58:17.154Z,2.80
2018-12-19T11:00:50.388Z,2.80
2018-12-19T11:03:18.266Z,2.90
2018-12-19T11:05:45.710Z,2.90
2018-12-19T11:08:13.189Z,2.90
2018-12-19T11:10:40.661Z,2.90
2018-12-19T11:13:08.123Z,2.90
2018-12-19T11:15:35.586Z,2.90
2018-12-19T11:18:03.164Z,2.90
2018-12-19T11:20:30.604Z,2.90
2018-12-19T11:22:58.074Z,2.90
2018-12-19T11:25:25.554Z,2.90
2018-12-19T11:27:53.016Z,2.90
2018-12-19T11:30:20.477Z,2.90
2018-12-19T11:32:47.937Z,2.90
2018-12-19T11:35:15.590Z,2.90
2018-12-19T11:37:43.032Z,3.00
2018-12-19T11:40:10.504Z,3.00
2018-12-19T11:42:37.966Z,3.00
2018-12-19T11:45:05.572Z,3.10
2018-12-19T11:47:33.025Z,3.00
2018-12-19T11:50:00.493Z,3.00
2018-12-19T11:52:27.956Z,3.00
2018-12-19T11:54:55.426Z,3.00
2018-12-19T11:57:22.952Z,3.00
2018-12-19T11:59:50.423Z,3.00
2018-12-19T12:02:17.872Z,3.00
2018-12-19T12:04:45.340Z,3.00
2018-12-19T12:07:13.148Z,2.90
2018-12-19T12:09:40.647Z,2.90
2018-12-19T12:12:08.156Z,2.90
2018-12-19T12:14:36.692Z,3.00
2018-12-19T12:17:04.156Z,3.00
2018-12-19T12:19:31.604Z,3.10
2018-12-19T12:21:59.057Z,3.10
2018-12-19T12:24:26.524Z,3.10
2018-12-19T12:26:54.003Z,3.10
2018-12-19T12:29:21.477Z,3.10
2018-12-19T12:31:48.935Z,3.10
2018-12-19T12:34:16.404Z,3.00
2018-12-19T12:36:43.958Z,3.00
2018-12-19T12:39:11.557Z,3.10
2018-12-19T12:41:39.016Z,3.10
2018-12-19T12:44:06.531Z,3.20
2018-12-19T12:46:33.994Z,3.20
2018-12-19T12:49:01.489Z,3.20
2018-12-19T12:51:28.953Z,3.30
2018-12-19T12:53:56.416Z,3.20
2018-12-19T12:56:23.868Z,3.20
2018-12-19T12:58:51.336Z,3.30
2018-12-19T13:01:18.788Z,3.30
2018-12-19T13:03:46.252Z,3.30
2018-12-19T13:06:13.726Z,3.20
2018-12-19T13:08:41.187Z,3.30
2018-12-19T13:11:08.656Z,3.30
2018-12-19T13:13:36.112Z,3.30
2018-12-19T13:16:03.585Z,3.30
2018-12-19T13:18:31.042Z,3.30
2018-12-19T13:20:58.514Z,3.30
2018-12-19T13:23:26.880Z,3.40
2018-12-19T13:25:54.412Z,3.40
2018-12-19T13:28:21.867Z,3.40
2018-12-19T13:30:49.341Z,3.40
2018-12-19T13:33:16.800Z,3.30
2018-12-19T13:35:44.268Z,3.30
2018-12-19T13:38:11.721Z,3.30
2018-12-19T13:40:39.198Z,3.20
2018-12-19T13:43:06.659Z,3.20
2018-12-19T13:45:34.140Z,3.10
2018-12-19T13:48:01.601Z,3.20
2018-12-19T13:50:29.061Z,3.20
2018-12-19T13:52:56.553Z,3.20
2018-12-19T13:55:24.014Z,3.20
2018-12-19T13:57:52.492Z,3.20
2018-12-19T14:00:21.449Z,3.30
2018-12-19T14:02:48.917Z,3.30
2018-12-19T14:05:16.364Z,3.30
2018-12-19T14:07:43.842Z,3.30
2018-12-19T14:10:11.363Z,3.40
2018-12-19T14:12:38.832Z,3.30
2018-12-19T14:15:07.629Z,3.30
2018-12-19T14:17:36.104Z,3.30
2018-12-19T14:20:05.293Z,3.30
2018-12-19T14:22:32.769Z,3.30
2018-12-19T14:25:00.216Z,3.20
2018-12-19T14:27:27.680Z,3.30
2018-12-19T14:29:55.132Z,3.60
2018-12-19T14:32:22.613Z,3.50
2018-12-19T14:34:50.080Z,3.40
2018-12-19T14:37:17.540Z,3.40
2018-12-19T14:39:45.011Z,3.40
2018-12-19T14:42:18.880Z,3.30
2018-12-19T14:44:41.947Z,3.40
2018-12-19T14:47:09.412Z,3.50
2018-12-19T14:49:36.893Z,3.40
2018-12-19T14:52:04.344Z,3.30
2018-12-19T14:54:31.816Z,3.30
2018-12-19T14:56:59.277Z,3.30
2018-12-19T14:59:26.811Z,3.30
2018-12-19T15:01:54.323Z,3.30
2018-12-19T15:04:22.087Z,3.20
2018-12-19T15:06:49.540Z,3.20
2018-12-19T15:09:17.004Z,3.20
2018-12-19T15:11:44.456Z,3.20
2018-12-19T15:14:11.924Z,3.20
2018-12-19T15:16:39.381Z,3.20
2018-12-19T15:19:06.845Z,3.20
2018-12-19T15:21:34.303Z,3.10
2018-12-19T15:24:02.181Z,3.10
2018-12-19T15:26:29.842Z,3.10
2018-12-19T15:28:57.300Z,3.10
2018-12-19T15:31:24.784Z,3.10
2018-12-19T15:33:52.244Z,3.10
2018-12-19T15:36:19.988Z,3.10
2018-12-19T15:38:47.449Z,3.10
2018-12-19T15:41:14.919Z,3.20
2018-12-19T15:43:42.376Z,3.20
2018-12-19T15:46:10.549Z,3.10
2018-12-19T15:48:38.011Z,3.10
2018-12-19T15:51:05.691Z,3.10
2018-12-19T15:53:33.213Z,3.10
2018-12-19T15:56:00.684Z,3.00
2018-12-19T15:58:28.148Z,3.00
2018-12-19T16:00:55.612Z,2.90
2018-12-19T16:03:23.072Z,3.00
2018-12-19T16:05:50.548Z,3.10
2018-12-19T16:08:18.005Z,3.00
2018-12-19T16:10:45.504Z,3.10
2018-12-19T16:13:16.033Z,3.10
2018-12-19T16:15:44.532Z,3.10
2018-12-19T16:18:12.274Z,3.00
2018-12-19T16:20:39.747Z,3.10
2018-12-19T16:23:07.228Z,3.00
2018-12-19T16:25:34.698Z,3.00
2018-12-19T16:28:02.169Z,3.10
2018-12-19T16:30:29.626Z,3.10
2018-12-19T16:32:57.098Z,3.00
2018-12-19T16:35:24.561Z,2.90
2018-12-19T16:37:52.163Z,2.90
2018-12-19T16:40:19.649Z,2.90
2018-12-19T16:42:47.125Z,2.90
2018-12-19T16:45:14.576Z,3.00
2018-12-19T16:47:42.211Z,3.00
2018-12-19T16:50:10.701Z,3.00
2018-12-19T16:52:38.172Z,3.00
2018-12-19T16:55:05.733Z,3.00
2018-12-19T16:57:33.301Z,3.00
2018-12-19T17:00:00.785Z,3.00
2018-12-19T17:02:28.230Z,3.00
2018-12-19T17:04:55.774Z,3.00
2018-12-19T17:07:23.247Z,3.00
2018-12-19T17:09:50.715Z,3.00
2018-12-19T17:12:18.269Z,3.00
2018-12-19T17:14:45.773Z,3.00
2018-12-19T17:17:14.115Z,2.90
2018-12-19T17:19:41.585Z,2.90
2018-12-19T17:22:09.060Z,3.10
2018-12-19T17:24:39.385Z,3.10
2018-12-19T17:27:06.851Z,3.00
2018-12-19T17:29:34.328Z,2.90
2018-12-19T17:32:01.852Z,3.00
2018-12-19T17:34:29.325Z,3.00
2018-12-19T17:36:56.785Z,3.00
2018-12-19T17:39:24.261Z,2.90
2018-12-19T17:41:51.727Z,2.90
2018-12-19T17:44:19.257Z,2.90
2018-12-19T17:46:46.733Z,2.90
2018-12-19T17:49:14.193Z,3.00
2018-12-19T17:51:41.660Z,3.00
2018-12-19T17:54:09.116Z,3.00
2018-12-19T17:56:36.606Z,3.00
2018-12-19T17:59:04.072Z,3.00
2018-12-19T18:01:31.601Z,2.90
2018-12-19T18:03:59.074Z,2.90
2018-12-19T18:06:26.544Z,2.90
2018-12-19T18:08:54.004Z,2.90
2018-12-19T18:11:21.484Z,2.80
2018-12-19T18:13:49.005Z,2.80
2018-12-19T18:16:16.476Z,2.80
2018-12-19T18:18:43.949Z,2.80
2018-12-19T18:21:11.440Z,2.80
2018-12-19T18:23:38.896Z,2.80
2018-12-19T18:26:06.372Z,2.80
2018-12-19T18:28:33.831Z,2.80
2018-12-19T18:33:41.461Z,2.80
2018-12-19T18:36:08.938Z,2.80
2018-12-19T18:38:36.425Z,2.90
2018-12-19T18:41:03.926Z,2.90
2018-12-19T18:43:31.398Z,2.80
2018-12-19T18:45:58.873Z,2.80
2018-12-19T18:48:26.356Z,2.80
2018-12-19T18:50:54.017Z,2.80
2018-12-19T18:53:23.509Z,2.80
2018-12-19T18:55:51.077Z,2.90
2018-12-19T18:58:18.561Z,3.00
2018-12-19T19:00:46.500Z,3.00
2018-12-19T19:03:15.119Z,3.00
2018-12-19T19:05:42.856Z,3.00
2018-12-19T19:08:10.413Z,3.00
2018-12-19T19:10:37.944Z,3.00
2018-12-19T19:13:05.416Z,2.90
2018-12-19T19:15:32.980Z,2.90
2018-12-19T19:18:00.450Z,2.80
2018-12-19T19:20:27.930Z,2.80
2018-12-19T19:22:55.426Z,2.90
2018-12-19T19:25:22.964Z,2.90
2018-12-19T19:27:50.425Z,2.90
2018-12-19T19:30:17.920Z,2.90
2018-12-19T19:32:45.380Z,2.90
2018-12-19T19:35:12.855Z,2.80
2018-12-19T19:37:40.333Z,2.80
2018-12-19T19:40:08.747Z,2.90
2018-12-19T19:42:36.370Z,2.90
2018-12-19T19:45:04.869Z,2.90
2018-12-19T19:47:32.357Z,2.90
2018-12-19T19:49:59.836Z,2.90
2018-12-19T19:52:27.322Z,2.90
2018-12-19T19:54:54.781Z,2.90
2018-12-19T19:57:22.276Z,2.90
2018-12-19T19:59:49.804Z,2.90
2018-12-19T20:02:17.277Z,2.90
2018-12-19T20:04:44.752Z,2.90
2018-12-19T20:07:12.287Z,2.90
2018-12-19T20:09:39.836Z,2.80
2018-12-19T20:12:07.334Z,2.80
2018-12-19T20:14:34.801Z,2.80
2018-12-19T20:17:03.101Z,2.80
2018-12-19T20:19:30.615Z,2.70
2018-12-19T20:21:58.149Z,2.80
2018-12-19T20:24:25.635Z,2.80
2018-12-19T20:26:53.166Z,2.80
2018-12-19T20:29:20.645Z,2.80
2018-12-19T20:31:48.107Z,2.80
2018-12-19T20:34:15.687Z,2.80
2018-12-19T20:36:43.194Z,2.80
2018-12-19T20:39:10.698Z,2.80
2018-12-19T20:41:38.192Z,2.70
2018-12-19T20:44:05.680Z,2.70
2018-12-19T20:46:33.162Z,2.80
2018-12-19T20:49:00.661Z,2.80
2018-12-19T20:51:29.142Z,2.80
2018-12-19T20:53:56.622Z,2.80
2018-12-19T20:56:24.214Z,2.80
2018-12-19T20:58:51.791Z,2.80
2018-12-19T21:01:19.512Z,2.90
2018-12-19T21:03:46.986Z,2.90
2018-12-19T21:06:14.473Z,2.90
2018-12-19T21:08:41.944Z,2.80
2018-12-19T21:11:09.414Z,2.80
2018-12-19T21:13:38.297Z,2.70
2018-12-19T21:16:05.778Z,2.70
2018-12-19T21:18:38.882Z,2.70
2018-12-19T21:21:07.273Z,2.80
2018-12-19T21:23:34.807Z,2.80
2018-12-19T21:26:02.288Z,2.80
2018-12-19T21:28:29.838Z,2.80
2018-12-19T21:30:57.317Z,2.80
2018-12-19T21:33:24.793Z,2.80
2018-12-19T21:35:52.275Z,2.80
2018-12-19T21:38:19.754Z,2.80
2018-12-19T21:40:47.237Z,2.80
2018-12-19T21:43:14.717Z,2.80
2018-12-19T21:45:42.201Z,2.80
2018-12-19T21:48:09.769Z,2.80
2018-12-19T21:50:37.396Z,2.80
2018-12-19T21:53:05.031Z,2.70
2018-12-19T21:55:32.611Z,2.70
2018-12-19T21:58:00.258Z,3.20
2018-12-19T22:00:30.186Z,2.80
2018-12-19T22:02:59.705Z,2.80
2018-12-19T22:05:27.928Z,2.70
2018-12-19T22:07:55.429Z,2.70
2018-12-19T22:10:22.942Z,2.70
2018-12-19T22:12:50.435Z,2.70
2018-12-19T22:15:17.888Z,2.70
2018-12-19T22:17:47.000Z,2.80
2018-12-19T22:20:14.489Z,2.70
2018-12-19T22:22:42.226Z,2.80
2018-12-19T22:25:09.822Z,2.80
2018-12-19T22:27:37.382Z,2.70
2018-12-19T22:30:06.634Z,2.70
2018-12-19T22:32:34.191Z,2.70
2018-12-19T22:35:01.715Z,2.70
2018-12-19T22:37:29.491Z,2.70
2018-12-19T22:39:56.995Z,2.70
2018-12-19T22:42:24.553Z,2.70
2018-12-19T22:44:52.034Z,2.70
2018-12-19T22:47:19.504Z,2.70
2018-12-19T22:49:47.213Z,2.70
2018-12-19T22:52:14.740Z,2.70
2018-12-19T22:54:42.252Z,2.70
2018-12-19T22:57:09.885Z,2.70
2018-12-19T22:59:37.384Z,2.60
2018-12-19T23:02:10.753Z,2.70
2018-12-19T23:04:38.330Z,2.70
2018-12-19T23:07:05.832Z,2.70
2018-12-19T23:09:33.424Z,2.80
2018-12-19T23:12:00.938Z,2.80
2018-12-19T23:14:28.508Z,2.80
2018-12-19T23:16:55.981Z,2.80
2018-12-19T23:19:23.455Z,2.80
2018-12-19T23:21:51.077Z,2.80
2018-12-19T23:24:18.687Z,2.80
2018-12-19T23:26:46.217Z,2.80
2018-12-19T23:29:13.759Z,2.80
2018-12-19T23:31:41.263Z,2.80
2018-12-19T23:34:08.851Z,2.80
2018-12-19T23:36:36.431Z,2.80
2018-12-19T23:39:05.926Z,2.80
2018-12-19T23:41:33.409Z,2.80
2018-12-19T23:44:01.889Z,2.80
2018-12-19T23:46:31.576Z,2.80
2018-12-19T23:48:59.216Z,2.80
2018-12-19T23:51:26.773Z,2.80
2018-12-19T23:53:54.374Z,2.80
2018-12-19T23:56:22.025Z,2.80
2018-12-19T23:58:49.682Z,2.80
